Time;durP1;ratioP1;P1;durP2;ratioP2;P2;SDS_P1;SDS_P2;PMS_P1;PMS_P2;Temp;Humidity;BMP_temperature;BMP_pressure;BME280_temperature;BME280_humidity;BME280_pressure;Samples;Min_cycle;Max_cycle;Signal;HPM_P1;HPM_P2
2021/12/19 00:09:37;;;;;;;124.43;68.28;;;7.10;99.90;;;;;;6099958;23;20142;-86
2021/12/19 00:12:06;;;;;;;119.13;62.67;;;7.10;99.90;;;;;;6096185;23;20150;-86
2021/12/19 00:14:32;;;;;;;119.15;61.72;;;7.10;99.90;;;;;;6120792;23;20233;-86
2021/12/19 00:17:06;;;;;;;115.40;68.07;;;7.00;99.90;;;;;;6095937;23;20612;-86
2021/12/19 00:19:32;;;;;;;125.13;69.43;;;7.00;99.90;;;;;;6096553;23;20523;-86
2021/12/19 00:22:01;;;;;;;121.55;68.68;;;7.00;99.90;;;;;;6095090;23;20606;-86
2021/12/19 00:24:29;;;;;;;126.68;73.95;;;7.00;99.90;;;;;;6120607;23;20167;-86
2021/12/19 00:26:55;;;;;;;115.82;62.90;;;7.00;99.90;;;;;;6121237;23;20510;-86
2021/12/19 00:29:24;;;;;;;116.32;59.92;;;7.00;99.90;;;;;;6121180;23;20154;-86
2021/12/19 00:31:55;;;;;;;130.68;68.15;;;7.00;99.90;;;;;;6120702;23;20147;-86
2021/12/19 00:34:23;;;;;;;126.50;65.43;;;7.00;99.90;;;;;;6120583;23;20224;-86
2021/12/19 00:36:52;;;;;;;116.55;60.67;;;7.00;99.90;;;;;;6121095;23;20200;-86
2021/12/19 00:39:18;;;;;;;111.47;58.93;;;7.00;99.90;;;;;;6061136;23;1422325;-84
2021/12/19 00:41:52;;;;;;;123.80;64.50;;;7.00;99.90;;;;;;6102681;23;20378;-84
2021/12/19 00:44:29;;;;;;;123.35;66.68;;;7.00;99.90;;;;;;6106575;23;20388;-83
2021/12/19 00:47:10;;;;;;;115.93;66.32;;;7.00;99.90;;;;;;6096962;23;20154;-84
2021/12/19 00:49:39;;;;;;;117.23;61.83;;;7.00;99.90;;;;;;6099765;23;20152;-84
2021/12/19 00:52:08;;;;;;;123.00;60.38;;;7.00;99.90;;;;;;6099656;23;20147;-83
2021/12/19 00:54:43;;;;;;;120.03;62.35;;;7.00;99.90;;;;;;6098177;23;20163;-84
2021/12/19 00:57:08;;;;;;;122.82;66.53;;;7.00;99.90;;;;;;6098094;23;20498;-84
2021/12/19 00:59:34;;;;;;;118.27;67.30;;;7.00;99.90;;;;;;6096980;23;20175;-84
2021/12/19 01:02:00;;;;;;;131.13;70.10;;;7.00;99.90;;;;;;6097424;23;20139;-84
2021/12/19 01:04:32;;;;;;;119.33;68.00;;;7.00;99.90;;;;;;6097520;23;20423;-84
2021/12/19 01:07:00;;;;;;;125.40;68.68;;;6.90;99.90;;;;;;6097750;23;20374;-84
2021/12/19 01:09:27;;;;;;;120.20;62.45;;;6.90;99.90;;;;;;6098200;23;20528;-83
2021/12/19 01:11:53;;;;;;;119.50;59.60;;;6.90;99.90;;;;;;6072908;23;20155;-84
2021/12/19 01:14:22;;;;;;;115.50;60.07;;;6.80;99.90;;;;;;6097866;23;20535;-84
2021/12/19 01:16:56;;;;;;;128.55;63.47;;;6.80;99.90;;;;;;6072151;23;20390;-84
2021/12/19 01:19:25;;;;;;;119.10;67.50;;;6.90;99.90;;;;;;6097864;23;20229;-84
2021/12/19 01:21:53;;;;;;;114.32;64.18;;;6.90;99.90;;;;;;6072271;23;20178;-83
2021/12/19 01:24:31;;;;;;;113.93;60.83;;;6.90;99.90;;;;;;6098260;23;20208;-84
2021/12/19 01:26:59;;;;;;;117.97;65.45;;;6.90;99.90;;;;;;6098534;23;20508;-83
2021/12/19 01:29:25;;;;;;;124.90;70.50;;;7.00;99.90;;;;;;6098458;23;20610;-83
2021/12/19 01:31:57;;;;;;;118.97;66.00;;;7.00;99.90;;;;;;6098717;23;20174;-84
2021/12/19 01:34:25;;;;;;;118.90;63.78;;;7.10;99.90;;;;;;6073347;23;20802;-84
2021/12/19 01:36:54;;;;;;;120.90;62.08;;;7.00;99.90;;;;;;6099576;23;20151;-83
2021/12/19 01:39:28;;;;;;;118.65;63.53;;;7.00;99.90;;;;;;6073446;23;20210;-84
2021/12/19 01:41:57;;;;;;;122.38;64.22;;;6.90;99.90;;;;;;6099350;23;20134;-84
2021/12/19 01:44:25;;;;;;;112.72;68.38;;;6.90;99.90;;;;;;6073837;23;20167;-83
2021/12/19 01:46:51;;;;;;;113.70;67.18;;;7.00;99.90;;;;;;6099722;23;20143;-83
2021/12/19 01:49:22;;;;;;;110.95;55.55;;;7.00;99.90;;;;;;6099537;23;20230;-83
2021/12/19 01:51:51;;;;;;;115.85;71.10;;;7.00;99.90;;;;;;6099237;23;20549;-83
2021/12/19 01:54:22;;;;;;;119.13;75.28;;;7.00;99.90;;;;;;6073659;23;20262;-83
2021/12/19 01:56:48;;;;;;;116.18;69.38;;;7.00;99.90;;;;;;6099071;23;20565;-83
2021/12/19 01:59:14;;;;;;;117.43;78.63;;;7.00;99.90;;;;;;6099299;23;20203;-83
2021/12/19 02:01:52;;;;;;;114.20;62.73;;;7.00;99.90;;;;;;6099332;23;20144;-83
2021/12/19 02:04:23;;;;;;;115.95;72.60;;;7.00;99.90;;;;;;6099500;23;20174;-83
2021/12/19 02:06:51;;;;;;;110.85;61.42;;;7.00;99.90;;;;;;6099987;23;20124;-83
2021/12/19 02:09:19;;;;;;;117.25;68.80;;;6.90;99.90;;;;;;6073516;23;20155;-84
2021/12/19 02:11:45;;;;;;;109.57;56.88;;;6.90;99.90;;;;;;6099269;23;20140;-84
2021/12/19 02:14:13;;;;;;;110.70;69.27;;;7.00;99.90;;;;;;6073638;23;20228;-84
2021/12/19 02:16:45;;;;;;;104.85;59.92;;;7.00;99.90;;;;;;6098825;23;20395;-84
2021/12/19 02:19:12;;;;;;;115.43;63.55;;;7.00;99.90;;;;;;6098735;23;20177;-83
2021/12/19 02:21:49;;;;;;;113.10;63.10;;;7.00;99.90;;;;;;6073383;23;20147;-84
2021/12/19 02:24:15;;;;;;;114.43;69.47;;;7.00;99.90;;;;;;6074327;23;20171;-84
2021/12/19 02:26:44;;;;;;;126.00;80.50;;;6.90;99.90;;;;;;6073658;23;20466;-83
2021/12/19 02:29:14;;;;;;;110.93;63.58;;;7.00;99.90;;;;;;6098917;23;20824;-83
2021/12/19 02:31:42;;;;;;;114.95;74.20;;;7.00;99.90;;;;;;6098755;23;20140;-83
2021/12/19 02:34:21;;;;;;;108.35;66.72;;;7.00;99.90;;;;;;6099209;23;20183;-83
2021/12/19 02:37:10;;;;;;;120.40;77.10;;;7.00;99.90;;;;;;6098181;23;20131;-84
2021/12/19 02:48:13;;;;;;;112.20;73.72;;;7.00;99.90;;;;;;6097990;23;20576;-83
2021/12/19 02:50:53;;;;;;;123.55;84.55;;;6.90;99.90;;;;;;6098620;23;20591;-83
2021/12/19 02:53:34;;;;;;;115.68;86.60;;;6.90;99.90;;;;;;6073084;23;20560;-83
2021/12/19 02:56:03;;;;;;;112.22;72.45;;;7.00;99.90;;;;;;6073677;23;20151;-83
2021/12/19 02:58:30;;;;;;;118.03;87.10;;;7.00;99.90;;;;;;6072921;23;20152;-84
2021/12/19 03:00:57;;;;;;;114.85;91.15;;;6.90;99.90;;;;;;6072794;23;20186;-83
2021/12/19 03:03:23;;;;;;;129.35;84.55;;;6.90;99.90;;;;;;6098553;23;20164;-84
2021/12/19 03:05:49;;;;;;;114.93;88.53;;;6.90;99.90;;;;;;6098729;23;20186;-83
2021/12/19 03:08:15;;;;;;;111.90;86.13;;;7.00;99.90;;;;;;6073557;23;20147;-83
2021/12/19 03:18:31;;;;;;;114.45;86.38;;;6.90;99.90;;;;;;6098858;23;20155;-84
2021/12/19 03:20:57;;;;;;;122.80;103.30;;;6.90;99.90;;;;;;6099023;23;20185;-84
2021/12/19 03:23:23;;;;;;;112.57;87.55;;;6.90;99.90;;;;;;6099366;23;20156;-83
2021/12/19 03:25:49;;;;;;;119.80;96.40;;;6.90;99.90;;;;;;6099458;23;20230;-83
2021/12/19 03:28:15;;;;;;;110.97;90.07;;;6.90;99.90;;;;;;6099741;23;20214;-83
2021/12/19 03:30:42;;;;;;;107.82;82.85;;;6.90;99.90;;;;;;6098801;23;20368;-83
2021/12/19 03:33:09;;;;;;;116.55;91.13;;;7.00;99.90;;;;;;6099216;23;20564;-83
2021/12/19 03:35:39;;;;;;;115.20;86.43;;;7.00;99.90;;;;;;6098825;23;20150;-83
2021/12/19 03:38:09;;;;;;;111.40;86.75;;;7.00;99.90;;;;;;6072967;23;20500;-83
2021/12/19 03:40:37;;;;;;;111.18;79.13;;;7.00;99.90;;;;;;6100452;23;20176;-84
2021/12/19 03:43:12;;;;;;;118.28;87.75;;;7.00;99.90;;;;;;6099409;23;20191;-83
2021/12/19 03:45:42;;;;;;;109.15;80.97;;;7.00;99.90;;;;;;6098322;23;20158;-83
2021/12/19 03:48:11;;;;;;;106.72;80.20;;;7.00;99.90;;;;;;6099090;23;20148;-83
2021/12/19 03:50:44;;;;;;;111.07;94.55;;;7.00;99.90;;;;;;6099459;23;20611;-83
2021/12/19 03:53:11;;;;;;;113.65;95.70;;;7.00;99.90;;;;;;6099447;23;20159;-83
2021/12/19 03:55:37;;;;;;;111.18;78.78;;;7.00;99.90;;;;;;6098691;23;20477;-83
2021/12/19 03:58:04;;;;;;;107.93;88.45;;;7.00;99.90;;;;;;6099938;23;20593;-83
2021/12/19 04:00:31;;;;;;;136.00;122.45;;;6.90;99.90;;;;;;6073446;23;20206;-83
2021/12/19 04:03:00;;;;;;;137.93;123.55;;;6.90;99.90;;;;;;6073448;23;20240;-83
2021/12/19 04:05:27;;;;;;;130.70;117.03;;;6.90;99.90;;;;;;6073174;23;20242;-83
2021/12/19 04:07:54;;;;;;;124.93;112.00;;;6.90;99.90;;;;;;6098336;23;20169;-83
2021/12/19 04:10:21;;;;;;;110.13;97.78;;;6.90;99.90;;;;;;6099183;23;20154;-83
2021/12/19 04:12:51;;;;;;;118.95;106.28;;;6.90;99.90;;;;;;6073376;23;20151;-83
2021/12/19 04:15:17;;;;;;;108.15;84.80;;;6.90;99.90;;;;;;6073511;23;20163;-83
2021/12/19 04:17:45;;;;;;;103.38;72.97;;;7.00;99.90;;;;;;6073937;23;20152;-83
2021/12/19 04:20:12;;;;;;;108.97;77.75;;;7.00;99.90;;;;;;6097138;23;20613;-83
2021/12/19 04:22:40;;;;;;;114.22;90.85;;;7.10;99.90;;;;;;6097046;23;20180;-83
2021/12/19 04:25:06;;;;;;;105.47;75.38;;;7.00;99.90;;;;;;6071337;23;20143;-84
2021/12/19 04:27:33;;;;;;;107.90;83.27;;;7.00;99.90;;;;;;6097368;23;20174;-83
2021/12/19 04:29:59;;;;;;;101.47;76.45;;;7.00;99.90;;;;;;6097035;23;20375;-83
2021/12/19 04:32:31;;;;;;;103.73;79.87;;;7.00;99.90;;;;;;6071517;23;20545;-83
2021/12/19 04:34:57;;;;;;;117.93;89.25;;;7.00;99.90;;;;;;6097256;23;20241;-84
2021/12/19 04:40:26;;;;;;;116.90;92.93;;;7.00;99.90;;;;;;6097339;23;20183;-83
2021/12/19 04:51:23;;;;;;;105.65;82.85;;;7.00;99.90;;;;;;6098232;23;20142;-83
2021/12/19 05:06:53;;;;;;;131.25;118.78;;;7.00;99.90;;;;;;6109277;23;20135;-83
2021/12/19 05:14:51;;;;;;;104.90;91.75;;;7.00;99.90;;;;;;6098285;23;20217;-83
2021/12/19 05:17:22;;;;;;;135.90;122.68;;;7.00;99.90;;;;;;6099087;23;20144;-83
2021/12/19 05:20:31;;;;;;;126.78;113.75;;;7.00;99.90;;;;;;6099365;23;20485;-83
2021/12/19 05:22:47;;;;;;;132.40;119.28;;;7.00;99.90;;;;;;6083922;23;20154;-83
2021/12/19 05:25:14;;;;;;;130.35;117.45;;;7.00;99.90;;;;;;6098647;23;20434;-83
2021/12/19 05:27:45;;;;;;;123.07;110.00;;;7.00;99.90;;;;;;6098087;23;20615;-83
2021/12/19 05:30:13;;;;;;;118.90;105.88;;;7.00;99.90;;;;;;6099113;23;20588;-83
2021/12/19 05:32:40;;;;;;;105.38;87.90;;;7.00;99.90;;;;;;6073028;23;20458;-83
2021/12/19 05:35:16;;;;;;;105.38;90.93;;;7.00;99.90;;;;;;6098396;23;20144;-83
2021/12/19 05:45:56;;;;;;;113.95;102.05;;;7.00;99.90;;;;;;6098698;23;20154;-83
2021/12/19 05:48:21;;;;;;;108.17;94.43;;;7.00;99.90;;;;;;6099084;23;20171;-83
2021/12/19 05:50:47;;;;;;;110.43;85.20;;;7.00;99.90;;;;;;6099143;23;20147;-83
2021/12/19 05:53:14;;;;;;;105.57;91.67;;;7.00;99.90;;;;;;6098953;23;20877;-83
2021/12/19 05:55:40;;;;;;;104.45;88.63;;;7.00;99.90;;;;;;6098647;23;20143;-83
2021/12/19 05:58:06;;;;;;;113.95;98.63;;;7.00;99.90;;;;;;6073187;23;20497;-83
2021/12/19 06:00:32;;;;;;;112.63;95.20;;;7.00;99.90;;;;;;6096681;23;20167;-83
2021/12/19 06:02:59;;;;;;;123.57;110.40;;;7.00;99.90;;;;;;6096320;23;20250;-83
2021/12/19 06:05:28;;;;;;;132.68;119.32;;;6.90;99.90;;;;;;6096437;23;20193;-84
2021/12/19 06:07:56;;;;;;;116.88;104.78;;;6.90;99.90;;;;;;6097156;23;20193;-82
2021/12/19 06:10:28;;;;;;;154.43;140.07;;;6.90;99.90;;;;;;6071305;23;20162;-83
2021/12/19 06:12:55;;;;;;;109.05;93.82;;;7.00;99.90;;;;;;6071981;23;20148;-83
2021/12/19 06:15:20;;;;;;;144.00;130.25;;;7.00;99.90;;;;;;6071002;23;20619;-84
2021/12/19 06:17:46;;;;;;;111.37;99.40;;;7.00;99.90;;;;;;6096740;23;20152;-84
2021/12/19 06:20:12;;;;;;;109.30;93.90;;;7.00;99.90;;;;;;6096928;23;20174;-83
2021/12/19 06:22:39;;;;;;;108.32;91.15;;;7.00;99.90;;;;;;6097481;23;20178;-82
2021/12/19 06:25:05;;;;;;;114.43;101.95;;;7.00;99.90;;;;;;6097023;23;20146;-83
2021/12/19 06:27:31;;;;;;;123.95;111.13;;;7.00;99.90;;;;;;6096825;23;20143;-83
2021/12/19 06:29:57;;;;;;;112.17;99.87;;;7.00;99.90;;;;;;6071233;23;20158;-83
2021/12/19 06:32:23;;;;;;;103.77;86.53;;;7.00;99.90;;;;;;6071813;23;20209;-83
2021/12/19 06:34:48;;;;;;;111.90;99.90;;;7.00;99.90;;;;;;6097491;23;20163;-84
2021/12/19 06:37:14;;;;;;;135.33;122.03;;;6.90;99.90;;;;;;6098098;23;20226;-83
2021/12/19 06:39:43;;;;;;;124.90;112.03;;;7.00;99.90;;;;;;6086166;22;20923;-91
2021/12/19 06:42:10;;;;;;;129.25;115.97;;;7.00;99.90;;;;;;6096519;23;20170;-91
2021/12/19 06:44:36;;;;;;;182.25;167.55;;;7.00;99.90;;;;;;6096784;23;20175;-91
2021/12/19 06:47:03;;;;;;;115.85;104.00;;;7.00;99.90;;;;;;6122609;23;20165;-91
2021/12/19 06:49:34;;;;;;;138.00;124.60;;;7.00;99.90;;;;;;6097907;23;20151;-91
2021/12/19 06:52:03;;;;;;;115.15;103.35;;;7.00;99.90;;;;;;6097022;23;20603;-91
2021/12/19 06:54:29;;;;;;;115.05;102.82;;;7.00;99.90;;;;;;6122242;23;20163;-91
2021/12/19 06:56:58;;;;;;;121.90;109.55;;;7.00;99.90;;;;;;6122589;23;20487;-91
2021/12/19 06:59:23;;;;;;;122.40;109.65;;;7.00;99.90;;;;;;6122501;23;20186;-91
2021/12/19 07:01:49;;;;;;;104.80;91.03;;;7.00;99.90;;;;;;6122527;23;20143;-91
2021/12/19 07:04:15;;;;;;;105.33;94.13;;;7.00;99.90;;;;;;6121960;23;20517;-91
2021/12/19 07:06:44;;;;;;;104.68;76.18;;;7.10;99.90;;;;;;6096409;23;20230;-91
2021/12/19 07:09:10;;;;;;;107.70;83.85;;;7.10;99.90;;;;;;6122066;23;20154;-91
2021/12/19 07:11:35;;;;;;;101.77;84.37;;;7.00;99.90;;;;;;6096711;23;20154;-91
2021/12/19 07:14:04;;;;;;;96.63;72.73;;;7.10;99.90;;;;;;6096645;23;20247;-91
2021/12/19 07:16:33;;;;;;;110.53;97.00;;;7.00;99.90;;;;;;6122734;23;20704;-91
2021/12/19 07:19:38;;;;;;;;;;;;;;;;;;;;;
2021/12/19 07:22:17;;;;;;;99.25;72.75;;;7.00;99.90;;;;;;6121959;23;20229;-91
2021/12/19 07:25:31;;;;;;;101.70;72.95;;;7.00;99.90;;;;;;6096967;23;20166;-91
2021/12/19 07:27:45;;;;;;;95.25;60.42;;;7.00;99.90;;;;;;6110710;23;20147;-91
2021/12/19 07:30:25;;;;;;;96.35;67.07;;;7.10;99.90;;;;;;6096475;23;20150;-91
2021/12/19 07:32:51;;;;;;;92.47;57.25;;;7.00;99.90;;;;;;6123385;23;20562;-91
2021/12/19 07:35:24;;;;;;;102.25;73.38;;;7.10;99.90;;;;;;6097101;23;20289;-91
2021/12/19 07:37:52;;;;;;;96.50;65.65;;;7.10;99.90;;;;;;6122827;23;20151;-91
2021/12/19 07:40:23;;;;;;;100.93;71.80;;;7.10;99.90;;;;;;6096821;23;20206;-91
2021/12/19 07:42:58;;;;;;;99.20;74.70;;;7.10;99.90;;;;;;6122937;23;20591;-91
2021/12/19 07:45:31;;;;;;;102.82;75.80;;;7.00;99.90;;;;;;6123222;23;20499;-91
2021/12/19 07:47:58;;;;;;;99.78;71.18;;;7.00;99.90;;;;;;6098252;23;20143;-91
2021/12/19 07:51:08;;;;;;;96.75;75.05;;;7.10;99.90;;;;;;6123386;23;20174;-91
2021/12/19 07:53:36;;;;;;;96.68;63.72;;;7.10;99.90;;;;;;6123024;23;20627;-91
2021/12/19 07:56:08;;;;;;;97.40;63.25;;;7.00;99.90;;;;;;6123642;23;20153;-91
2021/12/19 07:58:34;;;;;;;91.57;59.45;;;7.00;99.90;;;;;;6100034;23;20188;-91
2021/12/19 08:00:59;;;;;;;96.53;65.03;;;7.10;99.90;;;;;;6123168;23;20166;-91
2021/12/19 08:06:01;;;;;;;108.03;72.07;;;7.10;99.90;;;;;;6153353;23;20490;-91
2021/12/19 08:08:31;;;;;;;117.20;100.05;;;7.10;99.90;;;;;;6154679;23;20146;-91
2021/12/19 08:14:09;;;;;;;131.70;118.55;;;7.00;99.90;;;;;;6153444;23;20169;-91
2021/12/19 08:16:43;;;;;;;155.55;141.68;;;7.00;99.90;;;;;;6153343;23;20130;-91
2021/12/19 08:19:24;;;;;;;145.10;131.70;;;6.90;99.90;;;;;;6256542;22;20161;-91
2021/12/19 08:22:16;;;;;;;159.82;146.18;;;6.80;99.90;;;;;;6256740;22;20207;-91
2021/12/19 08:24:53;;;;;;;188.23;173.40;;;6.70;99.90;;;;;;6239470;22;20250;-91
2021/12/19 08:27:21;;;;;;;169.88;155.73;;;6.70;99.90;;;;;;6153136;23;20230;-91
2021/12/19 08:30:17;;;;;;;145.52;132.32;;;6.80;99.90;;;;;;6255223;22;20154;-92
2021/12/19 08:32:48;;;;;;;168.82;154.95;;;6.80;99.90;;;;;;6158554;23;20494;-91
2021/12/19 08:35:20;;;;;;;160.07;146.77;;;6.70;99.90;;;;;;6183922;23;20133;-91
2021/12/19 08:37:48;;;;;;;155.70;142.80;;;6.70;99.90;;;;;;6251920;22;20148;-91
2021/12/19 08:40:31;;;;;;;143.43;130.95;;;6.70;99.90;;;;;;6255461;22;20212;-91
2021/12/19 08:43:26;;;;;;;144.38;131.73;;;6.70;99.90;;;;;;6152282;22;20166;-91
2021/12/19 08:46:16;;;;;;;143.13;130.85;;;6.70;99.90;;;;;;6243099;22;20181;-91
2021/12/19 08:48:48;;;;;;;154.68;141.73;;;6.70;99.90;;;;;;6257455;22;20150;-91
2021/12/19 08:51:24;;;;;;;125.50;113.72;;;6.60;99.90;;;;;;6152499;22;20127;-92
2021/12/19 08:54:00;;;;;;;125.13;113.22;;;6.70;99.90;;;;;;6152124;23;20186;-91
2021/12/19 08:56:36;;;;;;;106.80;95.82;;;6.70;99.90;;;;;;6255519;22;20271;-91
2021/12/19 08:59:31;;;;;;;97.50;82.63;;;6.70;99.90;;;;;;6255405;22;20494;-91
2021/12/19 09:02:15;;;;;;;88.25;61.05;;;6.80;99.90;;;;;;6256166;22;20189;-91
2021/12/19 09:04:41;;;;;;;95.28;67.55;;;6.70;99.90;;;;;;6152098;22;20161;-91
2021/12/19 09:07:27;;;;;;;83.10;49.73;;;6.80;99.90;;;;;;6254609;22;20170;-91
2021/12/19 09:10:01;;;;;;;85.18;49.20;;;6.80;99.90;;;;;;6254699;22;20200;-91
2021/12/19 09:12:33;;;;;;;85.15;49.33;;;6.80;99.90;;;;;;6255339;22;20635;-91
2021/12/19 09:18:14;;;;;;;80.65;40.65;;;6.80;99.90;;;;;;6158371;22;20146;-91
2021/12/19 09:20:52;;;;;;;84.97;47.28;;;6.90;99.90;;;;;;6254585;22;20174;-91
2021/12/19 09:23:24;;;;;;;85.68;50.05;;;6.90;99.90;;;;;;6151646;23;20637;-91
2021/12/19 09:25:59;;;;;;;85.85;46.95;;;6.90;99.90;;;;;;6254807;22;20153;-91
2021/12/19 09:29:32;;;;;;;;;;;;;;;;;;;;;
2021/12/19 09:36:00;;;;;;;;;;;;;;;;;;;;;
2021/12/19 09:38:35;;;;;;;83.85;44.25;;;7.20;99.90;;;;;;6151551;23;20226;-90
2021/12/19 09:41:42;;;;;;;83.50;45.40;;;7.20;99.90;;;;;;6280330;22;20173;-90
2021/12/19 09:44:09;;;;;;;80.72;36.97;;;7.30;99.90;;;;;;6254373;22;20244;-90
2021/12/19 09:47:14;;;;;;;80.50;39.92;;;7.20;99.90;;;;;;6254335;22;20579;-91
2021/12/19 09:49:43;;;;;;;81.35;41.38;;;7.20;99.90;;;;;;6151617;23;20180;-90
2021/12/19 09:56:07;;;;;;;80.78;40.08;;;7.20;99.90;;;;;;6151250;23;20153;-90
2021/12/19 09:59:24;;;;;;;90.10;45.42;;;7.40;99.90;;;;;;6252649;22;20227;-90
2021/12/19 10:05:41;;;;;;;80.60;37.55;;;7.40;99.90;;;;;;6152992;23;20237;-86
2021/12/19 10:09:01;;;;;;;81.15;39.95;;;7.50;99.90;;;;;;6220664;22;20216;-86
2021/12/19 10:11:46;;;;;;;78.80;35.22;;;7.50;99.90;;;;;;6254211;22;20168;-90
2021/12/19 10:14:39;;;;;;;82.72;46.92;;;7.50;99.90;;;;;;6254354;22;20170;-90
2021/12/19 10:17:16;;;;;;;84.15;49.38;;;7.40;99.90;;;;;;6154912;22;20229;-90
2021/12/19 10:19:54;;;;;;;80.82;40.17;;;7.40;99.90;;;;;;6255569;22;20252;-90
2021/12/19 10:23:01;;;;;;;82.03;42.20;;;7.40;99.90;;;;;;6254320;22;20176;-90
2021/12/19 10:25:30;;;;;;;83.20;41.78;;;7.30;99.90;;;;;;6228339;22;20448;-90
2021/12/19 10:28:04;;;;;;;80.68;39.65;;;7.40;99.90;;;;;;6151329;22;20575;-90
2021/12/19 10:30:49;;;;;;;83.57;44.55;;;7.40;99.90;;;;;;6255246;22;20169;-90
2021/12/19 10:33:33;;;;;;;85.30;52.78;;;7.40;99.90;;;;;;6254791;22;20174;-90
2021/12/19 10:36:19;;;;;;;86.05;47.20;;;7.40;99.90;;;;;;6254901;22;20238;-90
2021/12/19 10:38:51;;;;;;;87.13;45.05;;;7.40;99.90;;;;;;6151741;22;20133;-90
2021/12/19 10:41:32;;;;;;;90.97;42.33;;;7.50;99.90;;;;;;6151424;23;20166;-90
2021/12/19 10:45:29;;;;;;;88.45;57.85;;;7.40;99.90;;;;;;6254074;22;20162;-90
2021/12/19 10:47:24;;;;;;;85.53;50.28;;;7.40;99.90;;;;;;6153674;22;20142;-90
2021/12/19 10:49:50;;;;;;;81.80;47.83;;;7.40;99.90;;;;;;6151030;23;20526;-90
2021/12/19 10:52:30;;;;;;;82.63;47.43;;;7.50;99.90;;;;;;6151024;23;20142;-90
2021/12/19 10:55:03;;;;;;;83.20;46.65;;;7.50;99.90;;;;;;6150919;23;20409;-90
2021/12/19 10:57:36;;;;;;;81.93;44.90;;;7.50;99.90;;;;;;6151727;22;20146;-90
2021/12/19 11:01:04;;;;;;;81.32;44.67;;;7.50;99.90;;;;;;6252375;22;20181;-90
2021/12/19 11:03:13;;;;;;;78.70;38.35;;;7.50;99.90;;;;;;6159828;22;20173;-90
2021/12/19 11:05:40;;;;;;;79.45;37.35;;;7.50;99.90;;;;;;6255004;22;20154;-90
2021/12/19 11:08:13;;;;;;;73.63;24.20;;;7.60;99.90;;;;;;6152302;23;20139;-90
2021/12/19 11:10:53;;;;;;;76.80;28.98;;;7.60;99.90;;;;;;6152524;22;20157;-90
2021/12/19 11:13:22;;;;;;;77.22;31.25;;;7.50;99.90;;;;;;6255812;22;20249;-90
2021/12/19 11:15:54;;;;;;;78.00;32.75;;;7.60;99.90;;;;;;6152731;22;20150;-90
2021/12/19 11:18:34;;;;;;;80.60;41.85;;;7.60;99.90;;;;;;6251715;22;20188;-90
2021/12/19 11:21:00;;;;;;;82.85;45.67;;;7.50;99.90;;;;;;6255972;22;20177;-90
2021/12/19 11:23:29;;;;;;;84.47;54.20;;;7.50;99.90;;;;;;6152163;22;20162;-90
2021/12/19 11:26:01;;;;;;;90.07;61.63;;;7.40;99.90;;;;;;6256111;22;20142;-90
2021/12/19 11:28:29;;;;;;;84.60;50.85;;;7.50;99.90;;;;;;6152066;23;20173;-90
2021/12/19 11:31:04;;;;;;;86.50;57.00;;;7.50;99.90;;;;;;6255997;22;20177;-90
2021/12/19 11:34:16;;;;;;;87.97;55.75;;;7.50;99.90;;;;;;6255403;22;20173;-90
2021/12/19 11:36:57;;;;;;;85.25;46.53;;;7.50;99.90;;;;;;6152542;22;20154;-90
2021/12/19 11:39:35;;;;;;;82.22;44.28;;;7.60;99.90;;;;;;6256591;22;20473;-90
2021/12/19 11:42:06;;;;;;;84.50;53.45;;;7.50;99.90;;;;;;6255145;22;20150;-90
2021/12/19 11:44:40;;;;;;;87.47;58.60;;;7.50;99.90;;;;;;6255826;22;20200;-90
2021/12/19 11:47:11;;;;;;;87.10;55.00;;;7.50;99.90;;;;;;6255278;22;20142;-90
2021/12/19 11:49:37;;;;;;;84.72;50.88;;;7.50;99.90;;;;;;6256436;22;20154;-90
2021/12/19 11:52:31;;;;;;;88.25;58.35;;;7.50;99.90;;;;;;6255895;22;20161;-90
2021/12/19 11:55:20;;;;;;;87.88;55.13;;;7.60;99.90;;;;;;6255036;22;20177;-90
2021/12/19 11:58:28;;;;;;;85.95;53.13;;;7.60;99.90;;;;;;6255690;22;20202;-90
2021/12/19 12:01:15;;;;;;;85.85;55.58;;;7.60;99.90;;;;;;6255637;22;20173;-90
2021/12/19 12:03:52;;;;;;;84.78;50.20;;;7.50;99.90;;;;;;6255794;22;20169;-90
2021/12/19 12:06:21;;;;;;;84.40;51.78;;;7.50;99.90;;;;;;6152505;23;20180;-90
2021/12/19 12:09:21;;;;;;;85.55;51.17;;;7.50;99.90;;;;;;6152584;22;20192;-90
2021/12/19 12:12:19;;;;;;;85.85;50.30;;;7.60;99.90;;;;;;6255778;22;20161;-90
2021/12/19 12:15:35;;;;;;;;;;;;;;;;;;;;;
2021/12/19 12:18:33;;;;;;;89.10;55.42;;;7.50;99.90;;;;;;6158121;22;20233;-90
2021/12/19 12:21:21;;;;;;;86.15;47.20;;;7.50;99.90;;;;;;6255498;22;20177;-90
2021/12/19 12:24:13;;;;;;;85.10;50.45;;;7.50;99.90;;;;;;6255232;22;20197;-90
2021/12/19 12:27:03;;;;;;;85.93;53.40;;;7.50;99.90;;;;;;6281149;22;20154;-90
2021/12/19 12:29:29;;;;;;;86.53;50.17;;;7.40;99.90;;;;;;6256647;22;20526;-90
2021/12/19 12:31:58;;;;;;;85.75;44.15;;;7.40;99.90;;;;;;6255013;22;20154;-90
2021/12/19 12:34:42;;;;;;;83.57;47.45;;;7.40;99.90;;;;;;6152385;23;20154;-90
2021/12/19 12:37:08;;;;;;;87.32;46.72;;;7.40;99.90;;;;;;6254945;22;20464;-90
2021/12/19 12:40:16;;;;;;;82.17;44.17;;;7.40;99.90;;;;;;6125662;22;20201;-86
2021/12/19 12:43:20;;;;;;;82.03;45.67;;;7.40;99.90;;;;;;6123002;23;20363;-86
2021/12/19 12:46:16;;;;;;;87.75;49.42;;;7.40;99.90;;;;;;6096913;23;20147;-85
2021/12/19 12:49:00;;;;;;;81.55;43.53;;;7.50;99.90;;;;;;6098164;23;20143;-85
2021/12/19 12:52:08;;;;;;;83.57;48.50;;;7.60;99.90;;;;;;6123438;23;20597;-86
2021/12/19 12:54:55;;;;;;;86.60;45.28;;;7.70;99.90;;;;;;6096894;23;20181;-85
2021/12/19 12:57:23;;;;;;;85.63;48.40;;;7.70;99.90;;;;;;6096626;23;20161;-85
2021/12/19 13:00:22;;;;;;;83.38;46.88;;;7.70;99.90;;;;;;6096732;23;20214;-85
2021/12/19 13:03:09;;;;;;;85.28;53.53;;;7.60;99.90;;;;;;6097402;23;20222;-86
2021/12/19 13:05:38;;;;;;;86.15;55.25;;;7.50;99.90;;;;;;6123135;23;20560;-86
2021/12/19 13:08:05;;;;;;;91.15;56.42;;;7.50;99.90;;;;;;6123641;23;20139;-86
2021/12/19 13:10:59;;;;;;;83.10;50.00;;;7.60;99.90;;;;;;6122615;23;20147;-86
2021/12/19 13:14:16;;;;;;;83.50;48.33;;;7.50;99.90;;;;;;6097920;23;20224;-85
2021/12/19 13:16:40;;;;;;;84.53;49.45;;;7.60;99.90;;;;;;6107370;23;20229;-87
2021/12/19 13:19:47;;;;;;;86.00;53.53;;;7.50;99.90;;;;;;6123817;23;20515;-88
2021/12/19 13:26:20;;;;;;;101.20;86.15;;;7.50;99.90;;;;;;6065540;23;20150;-87
2021/12/19 13:28:49;;;;;;;80.13;42.17;;;7.50;99.90;;;;;;6035327;23;20152;-88
2021/12/19 13:31:30;;;;;;;82.80;47.72;;;7.40;99.90;;;;;;6105004;23;20143;-87
2021/12/19 13:34:29;;;;;;;84.45;47.35;;;7.40;99.90;;;;;;6102763;23;20173;-87
2021/12/19 13:37:21;;;;;;;81.82;44.65;;;7.40;99.90;;;;;;6099264;23;20491;-88
2021/12/19 13:40:28;;;;;;;83.55;47.90;;;7.30;99.90;;;;;;6099979;23;20186;-88
2021/12/19 13:43:20;;;;;;;78.95;38.20;;;7.30;99.90;;;;;;6123552;23;20134;-87
2021/12/19 13:46:39;;;;;;;80.63;45.25;;;7.30;99.90;;;;;;6064534;23;20143;-88
2021/12/19 13:49:36;;;;;;;83.43;51.13;;;7.30;99.90;;;;;;6079430;23;20173;-88
2021/12/19 13:52:22;;;;;;;;;;;;;;;;;;;;;
2021/12/19 13:55:17;;;;;;;;;;;;;;;;;;;;;
2021/12/19 13:58:05;;;;;;;82.28;47.72;;;7.20;99.90;;;;;;6122843;23;20238;-87
2021/12/19 14:00:53;;;;;;;80.95;44.65;;;7.20;99.90;;;;;;6101692;23;20224;-87
2021/12/19 14:03:54;;;;;;;83.50;51.83;;;7.20;99.90;;;;;;6122697;23;20496;-87
2021/12/19 14:06:44;;;;;;;79.47;41.38;;;7.20;99.90;;;;;;6095552;23;20147;-87
2021/12/19 14:09:33;;;;;;;82.57;47.90;;;7.20;99.90;;;;;;6094019;23;20609;-87
2021/12/19 14:15:30;;;;;;;96.22;78.40;;;7.20;99.90;;;;;;6088865;23;20579;-87
2021/12/19 14:18:02;;;;;;;83.30;52.38;;;7.20;99.90;;;;;;6095785;23;20173;-87
2021/12/19 14:20:55;;;;;;;80.22;44.05;;;7.20;99.90;;;;;;6096879;23;20228;-87
2021/12/19 14:33:54;;;;;;;;;;;;;;;;;;;;;
2021/12/19 14:40:36;;;;;;;;;;;;;;;;;;;;;
2021/12/19 14:43:45;;;;;;;83.10;45.20;;;7.10;99.90;;;;;;6059827;23;20241;-87
2021/12/19 14:47:04;;;;;;;84.90;54.88;;;7.10;99.90;;;;;;6091474;23;20151;-87
2021/12/19 14:50:07;;;;;;;84.18;56.28;;;7.10;99.90;;;;;;6123191;23;20518;-87
2021/12/19 14:53:28;;;;;;;79.88;44.42;;;7.10;99.90;;;;;;6033226;23;20164;-87
2021/12/19 14:56:02;;;;;;;80.40;45.05;;;7.10;99.90;;;;;;6028936;23;20510;-87
2021/12/19 14:58:55;;;;;;;;;;;;;;;;;;;;;
2021/12/19 15:01:40;;;;;;;80.43;44.15;;;7.20;99.90;;;;;;6003050;23;20260;-87
2021/12/19 15:04:19;;;;;;;82.15;44.60;;;7.10;99.90;;;;;;6005784;23;20169;-87
2021/12/19 15:06:50;;;;;;;81.30;47.60;;;7.10;99.90;;;;;;6005662;23;20156;-87
2021/12/19 15:12:37;;;;;;;80.50;45.05;;;7.00;99.90;;;;;;6189836;23;20141;-87
2021/12/19 15:15:45;;;;;;;;;;;;;;;;;;;;;